sensor_id;sensor_type;location;lat;lon;timestamp;pressure;altitude;pressure_sealevel;temperature;humidity
34081;BME280;20358;50.272;19.026;2023-02-02T00:00:55;97373.19;;;-2.72;79.82
34081;BME280;20358;50.272;19.026;2023-02-02T00:04:00;97390.47;;;-2.74;79.24
34081;BME280;20358;50.272;19.026;2023-02-02T00:07:07;97377.66;;;-2.77;79.72
34081;BME280;20358;50.272;19.026;2023-02-02T00:10:16;97371.47;;;-2.73;80.26
34081;BME280;20358;50.272;19.026;2023-02-02T00:13:22;97380.19;;;-2.76;80.22
34081;BME280;20358;50.272;19.026;2023-02-02T00:16:37;97384.72;;;-2.82;80.12
34081;BME280;20358;50.272;19.026;2023-02-02T00:19:45;97384.69;;;-2.81;80.94
34081;BME280;20358;50.272;19.026;2023-02-02T00:22:50;97382.66;;;-2.73;80.04
34081;BME280;20358;50.272;19.026;2023-02-02T00:25:59;97389.34;;;-2.67;79.72
34081;BME280;20358;50.272;19.026;2023-02-02T00:29:06;97394.28;;;-2.61;79.79
34081;BME280;20358;50.272;19.026;2023-02-02T00:32:18;97410.91;;;-2.68;80.23
34081;BME280;20358;50.272;19.026;2023-02-02T00:35:24;97402.09;;;-2.63;79.37
34081;BME280;20358;50.272;19.026;2023-02-02T00:38:31;97410.03;;;-2.67;79.64
34081;BME280;20358;50.272;19.026;2023-02-02T00:41:41;97416.28;;;-2.74;80.18
34081;BME280;20358;50.272;19.026;2023-02-02T00:44:47;97411.47;;;-2.60;80.07
34081;BME280;20358;50.272;19.026;2023-02-02T00:48:09;97410.53;;;-2.58;79.02
34081;BME280;20358;50.272;19.026;2023-02-02T00:51:15;97421.94;;;-2.63;79.37
34081;BME280;20358;50.272;19.026;2023-02-02T00:54:21;97410.13;;;-2.70;79.38
34081;BME280;20358;50.272;19.026;2023-02-02T00:57:31;97411.13;;;-2.51;79.65
34081;BME280;20358;50.272;19.026;2023-02-02T01:00:36;97403.91;;;-2.65;79.87
34081;BME280;20358;50.272;19.026;2023-02-02T01:03:43;97410.34;;;-2.53;79.56
34081;BME280;20358;50.272;19.026;2023-02-02T01:06:49;97421.47;;;-2.51;78.90
34081;BME280;20358;50.272;19.026;2023-02-02T01:09:56;97412.72;;;-2.47;79.12
34081;BME280;20358;50.272;19.026;2023-02-02T01:13:05;97419.31;;;-2.40;79.03
34081;BME280;20358;50.272;19.026;2023-02-02T01:16:12;97428.34;;;-2.50;79.11
34081;BME280;20358;50.272;19.026;2023-02-02T01:19:17;97419.44;;;-2.43;79.61
34081;BME280;20358;50.272;19.026;2023-02-02T01:22:24;97419.03;;;-2.32;79.48
34081;BME280;20358;50.272;19.026;2023-02-02T01:25:29;97436.53;;;-2.39;79.09
34081;BME280;20358;50.272;19.026;2023-02-02T01:28:43;97426.69;;;-2.29;78.71
34081;BME280;20358;50.272;19.026;2023-02-02T01:31:49;97429.19;;;-2.28;79.30
34081;BME280;20358;50.272;19.026;2023-02-02T01:34:55;97423.63;;;-2.17;78.63
34081;BME280;20358;50.272;19.026;2023-02-02T01:38:01;97420.44;;;-2.24;78.88
34081;BME280;20358;50.272;19.026;2023-02-02T01:41:11;97431.38;;;-2.17;79.31
34081;BME280;20358;50.272;19.026;2023-02-02T01:48:33;97439.31;;;-2.22;78.49
34081;BME280;20358;50.272;19.026;2023-02-02T01:51:43;97442.56;;;-2.17;78.46
34081;BME280;20358;50.272;19.026;2023-02-02T01:54:58;97432.03;;;-2.12;78.19
34081;BME280;20358;50.272;19.026;2023-02-02T01:58:13;97430.31;;;-2.12;78.82
34081;BME280;20358;50.272;19.026;2023-02-02T02:01:26;97438.84;;;-2.10;78.71
34081;BME280;20358;50.272;19.026;2023-02-02T02:04:32;97428.03;;;-1.98;78.06
34081;BME280;20358;50.272;19.026;2023-02-02T02:07:42;97442.25;;;-2.08;77.63
34081;BME280;20358;50.272;19.026;2023-02-02T02:10:51;97441.16;;;-2.02;78.47
34081;BME280;20358;50.272;19.026;2023-02-02T02:14:00;97445.50;;;-2.03;78.35
34081;BME280;20358;50.272;19.026;2023-02-02T02:17:39;97453.50;;;-1.87;78.11
34081;BME280;20358;50.272;19.026;2023-02-02T02:21:13;97465.59;;;-1.87;78.01
34081;BME280;20358;50.272;19.026;2023-02-02T02:29:17;97475.44;;;-1.75;77.94
34081;BME280;20358;50.272;19.026;2023-02-02T02:32:47;97474.59;;;-1.76;77.22
34081;BME280;20358;50.272;19.026;2023-02-02T02:36:05;97477.03;;;-1.71;77.71
34081;BME280;20358;50.272;19.026;2023-02-02T02:39:28;97487.25;;;-1.68;77.84
34081;BME280;20358;50.272;19.026;2023-02-02T02:42:45;97478.97;;;-1.76;76.97
34081;BME280;20358;50.272;19.026;2023-02-02T02:45:56;97489.75;;;-1.88;77.78
34081;BME280;20358;50.272;19.026;2023-02-02T02:49:09;97480.63;;;-1.75;77.29
34081;BME280;20358;50.272;19.026;2023-02-02T02:52:16;97487.91;;;-1.85;77.31
34081;BME280;20358;50.272;19.026;2023-02-02T02:55:24;97478.28;;;-1.81;77.84
34081;BME280;20358;50.272;19.026;2023-02-02T02:58:45;97476.69;;;-1.84;77.57
34081;BME280;20358;50.272;19.026;2023-02-02T03:02:11;97489.53;;;-1.82;77.33
34081;BME280;20358;50.272;19.026;2023-02-02T03:05:44;97490.44;;;-1.83;76.99
34081;BME280;20358;50.272;19.026;2023-02-02T03:09:02;97491.09;;;-1.78;77.14
34081;BME280;20358;50.272;19.026;2023-02-02T03:12:12;97487.84;;;-1.83;77.07
34081;BME280;20358;50.272;19.026;2023-02-02T03:15:21;97487.63;;;-1.77;77.46
34081;BME280;20358;50.272;19.026;2023-02-02T03:18:29;97489.66;;;-1.85;77.35
34081;BME280;20358;50.272;19.026;2023-02-02T03:21:40;97491.09;;;-1.78;77.41
34081;BME280;20358;50.272;19.026;2023-02-02T03:24:45;97492.56;;;-1.71;76.88
34081;BME280;20358;50.272;19.026;2023-02-02T03:27:52;97498.75;;;-1.75;77.20
34081;BME280;20358;50.272;19.026;2023-02-02T03:31:00;97497.88;;;-1.76;76.74
34081;BME280;20358;50.272;19.026;2023-02-02T03:34:06;97493.09;;;-1.63;76.53
34081;BME280;20358;50.272;19.026;2023-02-02T03:37:15;97492.84;;;-1.57;76.59
34081;BME280;20358;50.272;19.026;2023-02-02T03:40:20;97504.34;;;-1.64;76.34
34081;BME280;20358;50.272;19.026;2023-02-02T03:43:27;97500.38;;;-1.51;76.60
34081;BME280;20358;50.272;19.026;2023-02-02T03:46:32;97503.75;;;-1.49;76.38
34081;BME280;20358;50.272;19.026;2023-02-02T03:49:39;97509.31;;;-1.58;76.34
34081;BME280;20358;50.272;19.026;2023-02-02T03:52:47;97500.25;;;-1.48;76.19
34081;BME280;20358;50.272;19.026;2023-02-02T03:55:53;97489.63;;;-1.42;75.84
34081;BME280;20358;50.272;19.026;2023-02-02T03:58:58;97490.78;;;-1.49;75.88
34081;BME280;20358;50.272;19.026;2023-02-02T04:02:05;97490.44;;;-1.40;76.14
34081;BME280;20358;50.272;19.026;2023-02-02T04:05:10;97487.19;;;-1.45;75.95
34081;BME280;20358;50.272;19.026;2023-02-02T04:08:19;97487.00;;;-1.41;76.38
34081;BME280;20358;50.272;19.026;2023-02-02T04:11:25;97484.47;;;-1.42;75.55
34081;BME280;20358;50.272;19.026;2023-02-02T04:14:32;97468.91;;;-1.42;75.74
34081;BME280;20358;50.272;19.026;2023-02-02T04:17:37;97473.56;;;-1.50;75.71
34081;BME280;20358;50.272;19.026;2023-02-02T04:20:44;97470.63;;;-1.41;75.83
34081;BME280;20358;50.272;19.026;2023-02-02T04:23:53;97475.16;;;-1.46;75.33
34081;BME280;20358;50.272;19.026;2023-02-02T04:26:59;97480.25;;;-1.45;75.62
34081;BME280;20358;50.272;19.026;2023-02-02T04:30:05;97468.91;;;-1.42;75.35
34081;BME280;20358;50.272;19.026;2023-02-02T04:33:12;97467.25;;;-1.43;75.24
34081;BME280;20358;50.272;19.026;2023-02-02T04:36:17;97462.78;;;-1.40;74.99
34081;BME280;20358;50.272;19.026;2023-02-02T04:39:26;97466.97;;;-1.37;74.57
34081;BME280;20358;50.272;19.026;2023-02-02T04:42:32;97470.22;;;-1.32;74.66
34081;BME280;20358;50.272;19.026;2023-02-02T04:45:38;97466.50;;;-1.25;74.31
34081;BME280;20358;50.272;19.026;2023-02-02T04:48:47;97473.34;;;-1.24;73.99
34081;BME280;20358;50.272;19.026;2023-02-02T04:51:53;97472.22;;;-1.17;73.93
34081;BME280;20358;50.272;19.026;2023-02-02T04:55:02;97479.47;;;-1.05;74.01
34081;BME280;20358;50.272;19.026;2023-02-02T04:58:08;97472.53;;;-1.04;73.09
34081;BME280;20358;50.272;19.026;2023-02-02T05:01:16;97470.91;;;-1.07;72.78
34081;BME280;20358;50.272;19.026;2023-02-02T05:04:24;97476.09;;;-1.07;72.78
34081;BME280;20358;50.272;19.026;2023-02-02T05:07:30;97469.81;;;-1.01;72.81
34081;BME280;20358;50.272;19.026;2023-02-02T05:10:41;97478.28;;;-0.98;72.47
34081;BME280;20358;50.272;19.026;2023-02-02T05:13:48;97481.84;;;-1.00;72.15
34081;BME280;20358;50.272;19.026;2023-02-02T05:16:55;97475.81;;;-1.01;71.96
34081;BME280;20358;50.272;19.026;2023-02-02T05:20:00;97467.28;;;-1.03;71.49
34081;BME280;20358;50.272;19.026;2023-02-02T05:23:07;97475.69;;;-0.98;71.02
34081;BME280;20358;50.272;19.026;2023-02-02T05:26:18;97460.28;;;-1.01;71.00
34081;BME280;20358;50.272;19.026;2023-02-02T05:29:28;97459.25;;;-0.97;70.50
34081;BME280;20358;50.272;19.026;2023-02-02T05:32:34;97459.91;;;-0.92;70.33
34081;BME280;20358;50.272;19.026;2023-02-02T05:35:40;97462.75;;;-0.78;70.66
34081;BME280;20358;50.272;19.026;2023-02-02T05:38:48;97473.13;;;-0.78;69.90
34081;BME280;20358;50.272;19.026;2023-02-02T05:41:57;97471.31;;;-0.76;69.49
34081;BME280;20358;50.272;19.026;2023-02-02T05:45:04;97467.53;;;-0.69;69.97
34081;BME280;20358;50.272;19.026;2023-02-02T05:48:12;97469.47;;;-0.74;69.02
34081;BME280;20358;50.272;19.026;2023-02-02T05:51:20;97462.75;;;-0.78;68.82
34081;BME280;20358;50.272;19.026;2023-02-02T05:54:30;97466.28;;;-0.80;68.70
34081;BME280;20358;50.272;19.026;2023-02-02T05:57:38;97452.09;;;-0.72;68.65
34081;BME280;20358;50.272;19.026;2023-02-02T06:00:45;97453.81;;;-0.71;68.19
34081;BME280;20358;50.272;19.026;2023-02-02T06:03:50;97445.38;;;-0.76;68.13
34081;BME280;20358;50.272;19.026;2023-02-02T06:06:56;97437.25;;;-0.68;68.55
34081;BME280;20358;50.272;19.026;2023-02-02T06:10:02;97447.34;;;-0.62;67.58
34081;BME280;20358;50.272;19.026;2023-02-02T06:13:12;97441.06;;;-0.56;67.92
34081;BME280;20358;50.272;19.026;2023-02-02T06:16:18;97446.19;;;-0.55;67.43
34081;BME280;20358;50.272;19.026;2023-02-02T06:19:24;97456.34;;;-0.50;67.58
34081;BME280;20358;50.272;19.026;2023-02-02T06:22:31;97437.97;;;-0.46;68.16
34081;BME280;20358;50.272;19.026;2023-02-02T06:25:37;97450.81;;;-0.41;67.82
34081;BME280;20358;50.272;19.026;2023-02-02T06:28:48;97454.16;;;-0.39;67.56
34081;BME280;20358;50.272;19.026;2023-02-02T06:31:55;97455.81;;;-0.38;68.03
34081;BME280;20358;50.272;19.026;2023-02-02T06:35:01;97456.00;;;-0.41;68.10
34081;BME280;20358;50.272;19.026;2023-02-02T06:38:08;97465.75;;;-0.48;67.65
34081;BME280;20358;50.272;19.026;2023-02-02T06:41:13;97466.22;;;-0.58;68.50
34081;BME280;20358;50.272;19.026;2023-02-02T06:44:22;97483.00;;;-0.67;69.18
34081;BME280;20358;50.272;19.026;2023-02-02T06:47:28;97469.59;;;-0.77;70.21
34081;BME280;20358;50.272;19.026;2023-02-02T06:50:36;97464.69;;;-0.83;70.22
34081;BME280;20358;50.272;19.026;2023-02-02T06:53:42;97451.38;;;-1.14;70.88
34081;BME280;20358;50.272;19.026;2023-02-02T06:56:48;97468.53;;;-1.11;71.47
34081;BME280;20358;50.272;19.026;2023-02-02T06:59:56;97458.47;;;-1.19;72.11
34081;BME280;20358;50.272;19.026;2023-02-02T07:03:03;97456.34;;;-1.09;72.50
34081;BME280;20358;50.272;19.026;2023-02-02T07:06:14;97449.22;;;-1.04;72.37
34081;BME280;20358;50.272;19.026;2023-02-02T07:09:22;97454.06;;;-0.97;72.09
34081;BME280;20358;50.272;19.026;2023-02-02T07:12:28;97452.13;;;-0.92;72.06
34081;BME280;20358;50.272;19.026;2023-02-02T07:15:39;97452.06;;;-0.90;71.74
34081;BME280;20358;50.272;19.026;2023-02-02T07:18:45;97454.47;;;-0.86;72.11
34081;BME280;20358;50.272;19.026;2023-02-02T07:21:52;97450.81;;;-0.82;72.02
34081;BME280;20358;50.272;19.026;2023-02-02T07:24:57;97456.00;;;-0.82;71.23
34081;BME280;20358;50.272;19.026;2023-02-02T07:28:04;97449.00;;;-0.80;71.77
34081;BME280;20358;50.272;19.026;2023-02-02T07:31:17;97451.59;;;-0.80;71.92
34081;BME280;20358;50.272;19.026;2023-02-02T07:34:25;97446.91;;;-0.72;72.30
34081;BME280;20358;50.272;19.026;2023-02-02T07:37:31;97448.66;;;-0.72;71.25
34081;BME280;20358;50.272;19.026;2023-02-02T07:40:37;97447.34;;;-0.81;72.03
34081;BME280;20358;50.272;19.026;2023-02-02T07:43:45;97452.50;;;-0.81;71.74
34081;BME280;20358;50.272;19.026;2023-02-02T07:46:55;97441.63;;;-0.89;71.26
34081;BME280;20358;50.272;19.026;2023-02-02T07:50:00;97453.03;;;-0.93;71.80
34081;BME280;20358;50.272;19.026;2023-02-02T07:53:07;97453.94;;;-0.94;72.01
34081;BME280;20358;50.272;19.026;2023-02-02T07:56:14;97454.31;;;-1.23;72.93
34081;BME280;20358;50.272;19.026;2023-02-02T07:59:22;97446.09;;;-1.12;73.23
34081;BME280;20358;50.272;19.026;2023-02-02T08:02:30;97456.91;;;-1.23;73.29
34081;BME280;20358;50.272;19.026;2023-02-02T08:05:37;97461.44;;;-1.28;73.97
34081;BME280;20358;50.272;19.026;2023-02-02T08:08:43;97459.88;;;-1.32;73.93
34081;BME280;20358;50.272;19.026;2023-02-02T08:11:49;97466.75;;;-1.31;73.94
34081;BME280;20358;50.272;19.026;2023-02-02T08:14:55;97454.53;;;-1.28;73.89
34081;BME280;20358;50.272;19.026;2023-02-02T08:18:04;97452.09;;;-1.32;74.05
34081;BME280;20358;50.272;19.026;2023-02-02T08:21:10;97470.00;;;-1.26;74.28
34081;BME280;20358;50.272;19.026;2023-02-02T08:24:16;97465.97;;;-1.33;74.32
34081;BME280;20358;50.272;19.026;2023-02-02T08:27:22;97471.47;;;-1.41;74.39
34081;BME280;20358;50.272;19.026;2023-02-02T08:30:28;97465.97;;;-1.33;74.93
34081;BME280;20358;50.272;19.026;2023-02-02T08:33:38;97477.88;;;-1.29;74.80
34081;BME280;20358;50.272;19.026;2023-02-02T08:36:45;97479.03;;;-1.36;75.29
34081;BME280;20358;50.272;19.026;2023-02-02T08:39:51;97492.31;;;-1.44;75.65
34081;BME280;20358;50.272;19.026;2023-02-02T08:42:57;97486.94;;;-1.39;75.63
34081;BME280;20358;50.272;19.026;2023-02-02T08:46:06;97492.19;;;-1.41;75.84
34081;BME280;20358;50.272;19.026;2023-02-02T08:49:16;97490.03;;;-1.51;76.17
34081;BME280;20358;50.272;19.026;2023-02-02T08:52:22;97505.56;;;-1.51;76.38
34081;BME280;20358;50.272;19.026;2023-02-02T08:55:29;97496.47;;;-1.61;76.96
34081;BME280;20358;50.272;19.026;2023-02-02T08:58:38;97516.75;;;-1.72;77.21
34081;BME280;20358;50.272;19.026;2023-02-02T09:01:44;97499.19;;;-1.64;77.79
34081;BME280;20358;50.272;19.026;2023-02-02T09:04:53;97504.53;;;-1.69;77.97
34081;BME280;20358;50.272;19.026;2023-02-02T09:07:59;97508.56;;;-1.62;78.10
34081;BME280;20358;50.272;19.026;2023-02-02T09:11:06;97515.19;;;-1.55;78.00
34081;BME280;20358;50.272;19.026;2023-02-02T09:14:13;97519.66;;;-1.58;78.09
34081;BME280;20358;50.272;19.026;2023-02-02T09:17:19;97520.69;;;-1.85;78.41
34081;BME280;20358;50.272;19.026;2023-02-02T09:20:28;97525.75;;;-1.82;78.60
34081;BME280;20358;50.272;19.026;2023-02-02T09:23:35;97533.97;;;-1.71;78.25
34081;BME280;20358;50.272;19.026;2023-02-02T09:26:44;97526.53;;;-1.80;78.40
34081;BME280;20358;50.272;19.026;2023-02-02T09:29:49;97532.19;;;-1.93;78.19
34081;BME280;20358;50.272;19.026;2023-02-02T09:32:56;97548.97;;;-2.03;79.40
34081;BME280;20358;50.272;19.026;2023-02-02T09:36:09;97545.53;;;-2.03;78.74
34081;BME280;20358;50.272;19.026;2023-02-02T09:39:18;97550.41;;;-1.96;79.50
34081;BME280;20358;50.272;19.026;2023-02-02T09:42:44;97553.97;;;-1.98;79.61
34081;BME280;20358;50.272;19.026;2023-02-02T09:46:08;97566.50;;;-2.11;78.88
34081;BME280;20358;50.272;19.026;2023-02-02T09:49:27;97570.22;;;-2.18;79.39
34081;BME280;20358;50.272;19.026;2023-02-02T09:52:48;97582.63;;;-2.27;80.31
34081;BME280;20358;50.272;19.026;2023-02-02T09:56:05;97577.25;;;-2.21;80.98
34081;BME280;20358;50.272;19.026;2023-02-02T09:59:20;97570.53;;;-2.04;80.53
34081;BME280;20358;50.272;19.026;2023-02-02T10:02:35;97571.31;;;-2.02;80.10
34081;BME280;20358;50.272;19.026;2023-02-02T10:05:53;97582.81;;;-1.85;80.43
34081;BME280;20358;50.272;19.026;2023-02-02T10:09:24;97601.31;;;-1.96;79.85
34081;BME280;20358;50.272;19.026;2023-02-02T10:12:42;97587.66;;;-1.76;80.06
34081;BME280;20358;50.272;19.026;2023-02-02T10:15:58;97591.25;;;-1.80;80.14
34081;BME280;20358;50.272;19.026;2023-02-02T10:19:13;97580.00;;;-1.58;80.03
34081;BME280;20358;50.272;19.026;2023-02-02T10:22:25;97596.41;;;-1.57;79.29
34081;BME280;20358;50.272;19.026;2023-02-02T10:25:46;97604.91;;;-1.32;78.76
34081;BME280;20358;50.272;19.026;2023-02-02T10:29:08;97626.44;;;-1.30;78.43
34081;BME280;20358;50.272;19.026;2023-02-02T10:32:24;97616.06;;;-1.30;78.04
34081;BME280;20358;50.272;19.026;2023-02-02T10:35:37;97615.34;;;-1.12;77.35
34081;BME280;20358;50.272;19.026;2023-02-02T10:38:59;97626.53;;;-0.90;75.90
34081;BME280;20358;50.272;19.026;2023-02-02T10:42:27;97681.81;;;-0.89;74.54
34081;BME280;20358;50.272;19.026;2023-02-02T10:45:47;97637.22;;;-0.76;74.25
34081;BME280;20358;50.272;19.026;2023-02-02T10:49:10;97634.41;;;-0.49;74.18
34081;BME280;20358;50.272;19.026;2023-02-02T10:52:30;97631.84;;;-0.51;73.43
34081;BME280;20358;50.272;19.026;2023-02-02T10:55:45;97625.47;;;-0.42;73.83
34081;BME280;20358;50.272;19.026;2023-02-02T10:59:05;97627.03;;;-0.38;73.82
34081;BME280;20358;50.272;19.026;2023-02-02T11:02:15;97633.19;;;-0.41;73.95
34081;BME280;20358;50.272;19.026;2023-02-02T11:05:26;97632.16;;;-0.58;74.81
34081;BME280;20358;50.272;19.026;2023-02-02T11:08:50;97653.44;;;-0.29;75.38
34081;BME280;20358;50.272;19.026;2023-02-02T11:12:04;97645.91;;;-0.56;74.66
34081;BME280;20358;50.272;19.026;2023-02-02T11:15:29;97646.88;;;-0.37;74.61
34081;BME280;20358;50.272;19.026;2023-02-02T11:18:36;97671.06;;;-0.58;74.32
34081;BME280;20358;50.272;19.026;2023-02-02T11:21:46;97658.50;;;-0.47;73.76
34081;BME280;20358;50.272;19.026;2023-02-02T11:24:56;97674.38;;;-0.55;73.64
34081;BME280;20358;50.272;19.026;2023-02-02T11:28:12;97678.31;;;-0.45;73.72
34081;BME280;20358;50.272;19.026;2023-02-02T11:31:34;97678.06;;;-0.60;72.80
34081;BME280;20358;50.272;19.026;2023-02-02T11:34:41;97696.63;;;-0.49;72.74
34081;BME280;20358;50.272;19.026;2023-02-02T11:37:53;97689.09;;;-0.55;71.63
34081;BME280;20358;50.272;19.026;2023-02-02T11:41:05;97684.44;;;-0.47;70.74
34081;BME280;20358;50.272;19.026;2023-02-02T11:44:24;97681.91;;;-0.27;70.51
34081;BME280;20358;50.272;19.026;2023-02-02T11:47:33;97683.59;;;-0.26;69.80
34081;BME280;20358;50.272;19.026;2023-02-02T11:50:44;97712.19;;;-0.28;69.06
34081;BME280;20358;50.272;19.026;2023-02-02T11:54:02;97684.88;;;0.04;69.34
34081;BME280;20358;50.272;19.026;2023-02-02T11:57:16;97684.38;;;-0.04;69.71
34081;BME280;20358;50.272;19.026;2023-02-02T12:00:25;97688.53;;;0.00;69.45
34081;BME280;20358;50.272;19.026;2023-02-02T12:03:37;97726.75;;;-0.03;67.72
34081;BME280;20358;50.272;19.026;2023-02-02T12:06:43;97738.34;;;0.08;68.33
34081;BME280;20358;50.272;19.026;2023-02-02T12:09:50;97707.72;;;0.16;68.36
34081;BME280;20358;50.272;19.026;2023-02-02T12:13:04;97721.50;;;0.18;67.87
34081;BME280;20358;50.272;19.026;2023-02-02T12:16:37;97724.88;;;0.20;67.68
34081;BME280;20358;50.272;19.026;2023-02-02T12:20:11;97734.03;;;0.29;68.52
34081;BME280;20358;50.272;19.026;2023-02-02T12:23:41;97766.13;;;0.26;67.77
34081;BME280;20358;50.272;19.026;2023-02-02T12:27:07;97754.44;;;0.16;68.14
34081;BME280;20358;50.272;19.026;2023-02-02T12:30:34;97742.41;;;0.15;67.57
34081;BME280;20358;50.272;19.026;2023-02-02T12:33:55;97734.41;;;0.20;67.69
34081;BME280;20358;50.272;19.026;2023-02-02T12:37:27;97745.34;;;0.26;67.13
34081;BME280;20358;50.272;19.026;2023-02-02T12:41:07;97651.16;;;-0.36;66.34
34081;BME280;20358;50.272;19.026;2023-02-02T12:44:43;97752.13;;;0.30;65.69
34081;BME280;20358;50.272;19.026;2023-02-02T12:48:16;97757.84;;;0.18;65.21
34081;BME280;20358;50.272;19.026;2023-02-02T12:51:49;97768.69;;;0.28;64.59
34081;BME280;20358;50.272;19.026;2023-02-02T12:55:19;97757.44;;;0.27;64.48
34081;BME280;20358;50.272;19.026;2023-02-02T12:58:40;97770.19;;;0.33;65.36
34081;BME280;20358;50.272;19.026;2023-02-02T13:02:03;97773.22;;;0.43;65.75
34081;BME280;20358;50.272;19.026;2023-02-02T13:05:38;97769.75;;;0.42;65.46
34081;BME280;20358;50.272;19.026;2023-02-02T13:09:05;97779.00;;;0.49;65.07
34081;BME280;20358;50.272;19.026;2023-02-02T13:12:22;97786.59;;;0.54;64.27
34081;BME280;20358;50.272;19.026;2023-02-02T13:15:34;97789.09;;;0.55;63.07
34081;BME280;20358;50.272;19.026;2023-02-02T13:18:50;97779.22;;;0.64;63.83
34081;BME280;20358;50.272;19.026;2023-02-02T13:22:02;97785.63;;;0.56;63.33
34081;BME280;20358;50.272;19.026;2023-02-02T13:25:18;97785.16;;;0.67;63.16
34081;BME280;20358;50.272;19.026;2023-02-02T13:28:41;97785.75;;;0.53;61.57
34081;BME280;20358;50.272;19.026;2023-02-02T13:31:58;97786.00;;;0.47;62.36
34081;BME280;20358;50.272;19.026;2023-02-02T13:35:16;97802.09;;;0.55;61.70
34081;BME280;20358;50.272;19.026;2023-02-02T13:38:28;97805.84;;;0.69;61.89
34081;BME280;20358;50.272;19.026;2023-02-02T13:41:36;97801.44;;;0.71;60.71
34081;BME280;20358;50.272;19.026;2023-02-02T13:44:52;97809.09;;;0.74;61.09
34081;BME280;20358;50.272;19.026;2023-02-02T13:48:17;97820.66;;;0.87;61.29
34081;BME280;20358;50.272;19.026;2023-02-02T13:51:51;97821.91;;;0.97;61.96
34081;BME280;20358;50.272;19.026;2023-02-02T13:55:42;97832.63;;;0.91;59.45
34081;BME280;20358;50.272;19.026;2023-02-02T13:59:24;97841.06;;;1.14;59.59
34081;BME280;20358;50.272;19.026;2023-02-02T14:02:49;97846.38;;;0.93;58.28
34081;BME280;20358;50.272;19.026;2023-02-02T14:06:07;97856.34;;;1.02;58.78
34081;BME280;20358;50.272;19.026;2023-02-02T14:09:17;97877.69;;;0.90;58.78
34081;BME280;20358;50.272;19.026;2023-02-02T14:12:29;97855.81;;;0.95;58.54
34081;BME280;20358;50.272;19.026;2023-02-02T14:15:39;97860.41;;;0.89;59.28
34081;BME280;20358;50.272;19.026;2023-02-02T14:18:59;97865.81;;;0.84;58.63
34081;BME280;20358;50.272;19.026;2023-02-02T14:22:41;97862.97;;;0.90;59.56
34081;BME280;20358;50.272;19.026;2023-02-02T14:26:05;97866.00;;;1.00;57.64
34081;BME280;20358;50.272;19.026;2023-02-02T14:29:34;97879.00;;;1.00;57.85
34081;BME280;20358;50.272;19.026;2023-02-02T14:32:42;97887.69;;;0.99;57.84
34081;BME280;20358;50.272;19.026;2023-02-02T14:36:10;97886.66;;;1.03;57.68
34081;BME280;20358;50.272;19.026;2023-02-02T14:39:20;97907.47;;;1.03;57.16
34081;BME280;20358;50.272;19.026;2023-02-02T14:42:51;97911.88;;;1.01;57.64
34081;BME280;20358;50.272;19.026;2023-02-02T14:46:37;97913.19;;;1.11;57.06
34081;BME280;20358;50.272;19.026;2023-02-02T14:49:49;97917.19;;;1.18;57.00
34081;BME280;20358;50.272;19.026;2023-02-02T14:53:18;97915.09;;;1.26;57.92
34081;BME280;20358;50.272;19.026;2023-02-02T14:56:40;97936.03;;;1.23;56.71
34081;BME280;20358;50.272;19.026;2023-02-02T14:59:53;97938.78;;;1.20;57.55
34081;BME280;20358;50.272;19.026;2023-02-02T15:03:31;97936.28;;;1.17;57.29
34081;BME280;20358;50.272;19.026;2023-02-02T15:06:40;97952.72;;;1.19;57.49
34081;BME280;20358;50.272;19.026;2023-02-02T15:09:50;97955.66;;;1.30;58.29
34081;BME280;20358;50.272;19.026;2023-02-02T15:13:05;97974.38;;;1.38;57.67
34081;BME280;20358;50.272;19.026;2023-02-02T15:16:23;97967.38;;;1.40;57.87
34081;BME280;20358;50.272;19.026;2023-02-02T15:19:38;97985.66;;;1.39;56.92
34081;BME280;20358;50.272;19.026;2023-02-02T15:22:55;97993.41;;;1.40;56.76
34081;BME280;20358;50.272;19.026;2023-02-02T15:26:16;98000.53;;;1.35;56.77
34081;BME280;20358;50.272;19.026;2023-02-02T15:29:36;97997.16;;;1.33;58.16
34081;BME280;20358;50.272;19.026;2023-02-02T15:32:47;98003.41;;;1.29;57.41
34081;BME280;20358;50.272;19.026;2023-02-02T15:35:58;98018.28;;;1.26;57.38
34081;BME280;20358;50.272;19.026;2023-02-02T15:39:18;98014.81;;;1.27;58.35
34081;BME280;20358;50.272;19.026;2023-02-02T15:42:42;98011.22;;;1.29;57.87
34081;BME280;20358;50.272;19.026;2023-02-02T15:46:02;98021.75;;;1.26;57.48
34081;BME280;20358;50.272;19.026;2023-02-02T15:49:20;98034.69;;;1.28;57.09
34081;BME280;20358;50.272;19.026;2023-02-02T15:52:46;98100.38;;;0.91;54.49
34081;BME280;20358;50.272;19.026;2023-02-02T15:55:54;98052.91;;;0.86;55.50
34081;BME280;20358;50.272;19.026;2023-02-02T15:59:18;98067.16;;;0.76;54.92
34081;BME280;20358;50.272;19.026;2023-02-02T16:02:33;98084.69;;;0.71;55.12
34081;BME280;20358;50.272;19.026;2023-02-02T16:05:47;98075.81;;;0.54;54.42
34081;BME280;20358;50.272;19.026;2023-02-02T16:08:55;98083.94;;;0.45;54.83
34081;BME280;20358;50.272;19.026;2023-02-02T16:12:04;98093.75;;;0.61;55.17
34081;BME280;20358;50.272;19.026;2023-02-02T16:15:20;98098.41;;;0.52;55.67
34081;BME280;20358;50.272;19.026;2023-02-02T16:18:29;98116.53;;;0.54;54.89
34081;BME280;20358;50.272;19.026;2023-02-02T16:21:41;98130.25;;;0.34;55.55
34081;BME280;20358;50.272;19.026;2023-02-02T16:24:55;98142.63;;;0.28;55.37
34081;BME280;20358;50.272;19.026;2023-02-02T16:28:05;98128.00;;;0.25;55.23
34081;BME280;20358;50.272;19.026;2023-02-02T16:31:14;98168.81;;;0.22;55.15
34081;BME280;20358;50.272;19.026;2023-02-02T16:34:42;98148.69;;;0.28;55.37
34081;BME280;20358;50.272;19.026;2023-02-02T16:37:51;98155.84;;;0.22;56.25
34081;BME280;20358;50.272;19.026;2023-02-02T16:41:05;98046.31;;;-0.36;55.68
34081;BME280;20358;50.272;19.026;2023-02-02T16:44:34;98180.50;;;0.10;55.06
34081;BME280;20358;50.272;19.026;2023-02-02T16:47:46;98160.84;;;0.26;55.89
34081;BME280;20358;50.272;19.026;2023-02-02T16:54:28;98179.09;;;0.25;55.43
34081;BME280;20358;50.272;19.026;2023-02-02T16:57:35;98200.94;;;0.19;55.09
34081;BME280;20358;50.272;19.026;2023-02-02T17:00:57;98200.16;;;0.17;55.20
34081;BME280;20358;50.272;19.026;2023-02-02T17:04:25;98212.78;;;0.26;55.09